Time;durP1;ratioP1;P1;durP2;ratioP2;P2;SDS_P1;SDS_P2;PMS_P1;PMS_P2;Temp;Humidity;BMP_temperature;BMP_pressure;BME280_temperature;BME280_humidity;BME280_pressure;Samples;Min_cycle;Max_cycle;Signal;HPM_P1;HPM_P2
2022/12/05 00:01:51;;;;;;;105.38;16.90;;;0.70;99.90;;;;;;5035528;28;20075;-68
2022/12/05 00:04:17;;;;;;;102.72;16.73;;;0.70;99.90;;;;;;5043221;28;20541;-68
2022/12/05 00:06:43;;;;;;;103.30;16.27;;;0.60;99.90;;;;;;5033436;28;20120;-68
2022/12/05 00:09:10;;;;;;;118.28;16.77;;;0.60;99.90;;;;;;5042098;28;20035;-67
2022/12/05 00:11:38;;;;;;;119.95;17.13;;;0.60;99.90;;;;;;5037223;28;20041;-68
2022/12/05 00:14:05;;;;;;;140.18;17.75;;;0.70;99.90;;;;;;5039072;28;20072;-69
2022/12/05 00:16:32;;;;;;;63.80;16.02;;;0.70;99.90;;;;;;5032239;28;20555;-68
2022/12/05 00:19:02;;;;;;;75.55;16.60;;;0.70;99.90;;;;;;5024485;28;20059;-68
2022/12/05 00:21:30;;;;;;;56.45;15.65;;;0.70;99.90;;;;;;5021961;28;20052;-67
2022/12/05 00:23:57;;;;;;;98.20;15.23;;;0.70;99.90;;;;;;5027251;28;20107;-68
2022/12/05 00:26:23;;;;;;;96.32;15.23;;;0.70;99.90;;;;;;5023162;28;20773;-68
2022/12/05 00:28:50;;;;;;;51.47;14.90;;;0.60;99.90;;;;;;5028370;28;20120;-70
2022/12/05 00:31:18;;;;;;;97.88;15.02;;;0.60;99.90;;;;;;5021825;28;20444;-68
2022/12/05 00:33:44;;;;;;;94.70;16.95;;;0.60;99.90;;;;;;5024884;28;20084;-68
2022/12/05 00:36:16;;;;;;;93.28;16.10;;;0.60;99.90;;;;;;5018629;28;20114;-66
2022/12/05 00:38:42;;;;;;;136.55;18.17;;;0.60;99.90;;;;;;5024698;28;20037;-69
2022/12/05 00:41:16;;;;;;;142.52;19.50;;;0.50;99.90;;;;;;5020863;28;20108;-67
2022/12/05 00:43:42;;;;;;;126.28;19.55;;;0.50;99.90;;;;;;5025919;28;20041;-66
2022/12/05 00:46:12;;;;;;;118.55;16.83;;;0.50;99.90;;;;;;5018988;28;20041;-68
2022/12/05 00:48:38;;;;;;;96.95;14.70;;;0.50;99.90;;;;;;5028360;28;20056;-69
2022/12/05 00:51:10;;;;;;;227.80;19.05;;;0.50;99.90;;;;;;5023923;28;20607;-68
2022/12/05 00:53:36;;;;;;;126.65;18.33;;;0.50;99.90;;;;;;5024752;28;20044;-68
2022/12/05 00:56:04;;;;;;;111.60;16.73;;;0.50;99.90;;;;;;5022172;28;20079;-67
2022/12/05 00:58:31;;;;;;;157.82;18.45;;;0.60;99.90;;;;;;5023280;28;20056;-68
2022/12/05 01:01:03;;;;;;;102.63;17.52;;;0.60;99.90;;;;;;5020783;28;20065;-69
2022/12/05 01:03:29;;;;;;;173.55;18.42;;;0.50;99.90;;;;;;5024976;28;20041;-67
2022/12/05 01:05:54;;;;;;;102.35;16.75;;;0.50;99.90;;;;;;5012775;28;20042;-67
2022/12/05 01:08:20;;;;;;;245.77;23.02;;;0.50;99.90;;;;;;5023019;28;20033;-67
2022/12/05 01:10:55;;;;;;;164.52;22.05;;;0.60;99.90;;;;;;5018940;28;20087;-67
2022/12/05 01:13:22;;;;;;;89.28;14.60;;;0.60;99.90;;;;;;5023755;28;20055;-68
2022/12/05 01:15:48;;;;;;;129.20;16.13;;;0.60;99.90;;;;;;5022657;28;20049;-68
2022/12/05 01:18:15;;;;;;;99.07;16.58;;;0.60;99.90;;;;;;5022034;28;20031;-68
2022/12/05 01:20:42;;;;;;;172.48;19.38;;;0.60;99.90;;;;;;5024336;28;20520;-68
2022/12/05 01:23:08;;;;;;;122.10;16.83;;;0.50;99.90;;;;;;5025621;28;20045;-68
2022/12/05 01:25:34;;;;;;;174.88;17.48;;;0.50;99.90;;;;;;5019208;28;20486;-69
2022/12/05 01:28:00;;;;;;;274.77;20.05;;;0.50;99.90;;;;;;5026732;28;20087;-69
2022/12/05 01:30:25;;;;;;;291.25;20.13;;;0.50;99.90;;;;;;5021268;28;20532;-68
2022/12/05 01:32:51;;;;;;;273.23;19.05;;;0.40;99.90;;;;;;5024075;28;20489;-68
2022/12/05 01:35:17;;;;;;;291.08;22.10;;;0.40;99.90;;;;;;5022335;28;20061;-69
2022/12/05 01:37:43;;;;;;;264.05;23.38;;;0.40;99.90;;;;;;5024340;28;20076;-69
2022/12/05 01:40:08;;;;;;;123.22;16.90;;;0.40;99.90;;;;;;5024857;28;20038;-68
2022/12/05 01:42:34;;;;;;;273.50;19.55;;;0.40;99.90;;;;;;5022990;28;20401;-68
2022/12/05 01:45:07;;;;;;;222.85;20.58;;;0.40;99.90;;;;;;5022714;28;20425;-68
2022/12/05 01:47:35;;;;;;;189.23;19.40;;;0.40;99.90;;;;;;5022486;28;20049;-67
2022/12/05 01:50:01;;;;;;;160.43;16.10;;;0.40;99.90;;;;;;5024955;28;20044;-68
2022/12/05 01:52:29;;;;;;;237.50;19.75;;;0.50;99.90;;;;;;5020877;28;20393;-67
2022/12/05 01:55:01;;;;;;;261.00;20.08;;;0.40;99.90;;;;;;5022153;28;20109;-67
2022/12/05 01:57:27;;;;;;;260.83;20.98;;;0.40;99.90;;;;;;5018531;28;20509;-68
2022/12/05 01:59:59;;;;;;;164.13;17.40;;;0.50;99.90;;;;;;5022162;28;20037;-67
2022/12/05 02:02:26;;;;;;;221.40;18.50;;;0.40;99.90;;;;;;5017224;28;20842;-67
2022/12/05 02:05:16;;;;;;;218.73;23.13;;;0.40;99.90;;;;;;5033474;28;20532;-67
2022/12/05 02:07:42;;;;;;;371.88;27.38;;;0.40;99.90;;;;;;5019613;28;20071;-67
2022/12/05 02:10:09;;;;;;;229.93;19.02;;;0.50;99.90;;;;;;5022544;28;20042;-68
2022/12/05 02:12:35;;;;;;;236.60;19.20;;;0.40;99.90;;;;;;5021283;28;20045;-68
2022/12/05 02:15:26;;;;;;;381.92;23.48;;;0.40;99.90;;;;;;5021403;28;20584;-68
2022/12/05 02:18:29;;;;;;;177.60;18.80;;;0.40;99.90;;;;;;5021771;28;20033;-68
2022/12/05 02:21:08;;;;;;;370.23;27.17;;;0.40;99.90;;;;;;5017367;28;20058;-67
2022/12/05 02:24:01;;;;;;;158.73;17.40;;;0.50;99.90;;;;;;5023886;28;20528;-67
2022/12/05 02:27:11;;;;;;;298.90;18.52;;;0.50;99.90;;;;;;5046849;28;20050;-67
2022/12/05 02:30:16;;;;;;;204.02;17.05;;;0.40;99.90;;;;;;5018686;28;20049;-67
2022/12/05 02:33:39;;;;;;;264.02;21.08;;;0.50;99.90;;;;;;5027695;28;20117;-68
2022/12/05 02:36:29;;;;;;;288.95;22.27;;;0.50;99.90;;;;;;5000861;28;20532;-68
2022/12/05 02:39:08;;;;;;;449.30;27.60;;;0.50;99.90;;;;;;5004910;28;20045;-68
2022/12/05 02:42:12;;;;;;;363.88;26.30;;;0.50;99.90;;;;;;5021220;28;20049;-68
2022/12/05 02:44:45;;;;;;;259.95;21.65;;;0.40;99.90;;;;;;5014984;28;20042;-68
2022/12/05 02:47:14;;;;;;;231.60;19.40;;;0.50;99.90;;;;;;5023756;28;20045;-67
2022/12/05 02:49:41;;;;;;;99.53;18.38;;;0.50;99.90;;;;;;5014645;28;20105;-68
2022/12/05 02:52:12;;;;;;;293.73;21.77;;;0.60;99.90;;;;;;5032301;28;20443;-68
2022/12/05 02:54:41;;;;;;;185.75;17.83;;;0.60;99.90;;;;;;5016950;28;20044;-68
2022/12/05 02:57:08;;;;;;;195.45;17.77;;;0.50;99.90;;;;;;5027840;28;20119;-68
2022/12/05 02:59:34;;;;;;;189.60;17.05;;;0.60;99.90;;;;;;5019465;28;20071;-67
2022/12/05 03:02:00;;;;;;;131.63;17.42;;;0.60;99.90;;;;;;5021443;28;20038;-68
2022/12/05 03:04:27;;;;;;;87.03;14.48;;;0.60;99.90;;;;;;5020911;28;20408;-68
2022/12/05 03:07:04;;;;;;;218.20;18.88;;;0.60;99.90;;;;;;5020922;28;20128;-68
2022/12/05 03:09:41;;;;;;;155.07;14.82;;;0.60;99.90;;;;;;5021830;28;20049;-68
2022/12/05 03:12:15;;;;;;;161.18;15.68;;;0.60;99.90;;;;;;5020999;28;20034;-68
2022/12/05 03:14:46;;;;;;;234.18;20.45;;;0.60;99.90;;;;;;5022726;28;20068;-68
2022/12/05 03:17:20;;;;;;;179.02;17.08;;;0.70;99.90;;;;;;5020378;28;20076;-68
2022/12/05 03:20:01;;;;;;;195.85;18.98;;;0.70;99.90;;;;;;5024312;28;20045;-68
2022/12/05 03:22:30;;;;;;;148.38;15.93;;;0.50;99.90;;;;;;5023544;28;20084;-68
2022/12/05 03:24:57;;;;;;;146.52;16.23;;;0.60;99.90;;;;;;5021150;28;20042;-67
2022/12/05 03:27:28;;;;;;;198.90;17.92;;;0.60;99.90;;;;;;5020798;28;20049;-68
2022/12/05 03:30:09;;;;;;;139.95;15.18;;;0.60;99.90;;;;;;5020515;28;20247;-68
2022/12/05 03:33:08;;;;;;;165.85;17.05;;;0.60;99.90;;;;;;5021446;28;20103;-68
2022/12/05 03:35:48;;;;;;;128.85;17.58;;;0.60;99.90;;;;;;5012641;28;20132;-68
2022/12/05 03:38:44;;;;;;;105.90;13.38;;;0.70;99.90;;;;;;5010941;28;20086;-68
2022/12/05 03:41:42;;;;;;;94.60;13.70;;;0.70;99.90;;;;;;5007126;28;20072;-68
2022/12/05 03:44:17;;;;;;;105.10;14.35;;;0.70;99.90;;;;;;5022333;28;20030;-68
2022/12/05 03:46:52;;;;;;;56.42;11.95;;;0.70;99.90;;;;;;5019234;28;20444;-68
2022/12/05 03:49:28;;;;;;;55.92;13.75;;;0.70;99.90;;;;;;5018647;28;20064;-68
2022/12/05 03:51:56;;;;;;;41.90;11.75;;;0.70;99.90;;;;;;5019396;28;20095;-67
2022/12/05 03:54:48;;;;;;;26.50;12.13;;;0.60;99.90;;;;;;5027565;28;20132;-68
2022/12/05 03:57:20;;;;;;;17.40;10.52;;;0.70;99.90;;;;;;5024385;28;20095;-68
2022/12/05 03:59:58;;;;;;;17.52;9.73;;;0.70;99.90;;;;;;5028725;28;20493;-68
2022/12/05 04:02:30;;;;;;;18.27;10.07;;;0.70;99.90;;;;;;5025027;28;20049;-67
2022/12/05 04:05:08;;;;;;;19.83;9.70;;;0.70;99.90;;;;;;5026016;28;20044;-68
2022/12/05 04:07:38;;;;;;;19.48;9.93;;;0.60;99.90;;;;;;5028267;28;20140;-68
2022/12/05 04:10:19;;;;;;;17.98;9.65;;;0.70;99.90;;;;;;5017449;28;20176;-68
2022/12/05 04:12:47;;;;;;;21.42;10.07;;;0.70;99.90;;;;;;5024917;28;20037;-68
2022/12/05 04:15:21;;;;;;;15.10;9.32;;;0.70;99.90;;;;;;5024359;28;20036;-67
2022/12/05 04:18:00;;;;;;;15.20;8.57;;;0.70;99.90;;;;;;5025893;28;20833;-67
2022/12/05 04:23:17;;;;;;;14.60;8.23;;;0.80;99.90;;;;;;5022916;28;20481;-67
2022/12/05 04:26:02;;;;;;;13.85;7.28;;;0.80;99.90;;;;;;5022658;28;20042;-68
2022/12/05 04:28:38;;;;;;;14.65;7.97;;;0.80;99.90;;;;;;5026183;28;20103;-67
2022/12/05 04:31:18;;;;;;;13.35;6.88;;;0.80;99.90;;;;;;5022039;28;20048;-67
2022/12/05 04:33:54;;;;;;;11.85;7.30;;;0.80;99.90;;;;;;5025806;28;20144;-69
2022/12/05 04:36:22;;;;;;;13.75;7.60;;;0.80;99.90;;;;;;5019487;28;20042;-69
2022/12/05 04:38:58;;;;;;;11.43;7.25;;;0.80;99.90;;;;;;5041412;28;20048;-69
2022/12/05 04:41:36;;;;;;;13.32;7.80;;;0.90;99.90;;;;;;5027152;28;20053;-68
2022/12/05 04:44:06;;;;;;;13.25;7.53;;;0.80;99.90;;;;;;5025913;28;20072;-69
2022/12/05 04:46:34;;;;;;;12.68;7.57;;;0.80;99.90;;;;;;5022372;28;20041;-68
2022/12/05 04:49:04;;;;;;;14.95;7.65;;;0.80;99.90;;;;;;5027322;28;20050;-69
2022/12/05 04:51:33;;;;;;;13.38;7.47;;;0.90;99.90;;;;;;5022206;28;20076;-69
2022/12/05 04:54:13;;;;;;;12.82;7.28;;;0.90;99.90;;;;;;5024693;28;20045;-68
2022/12/05 04:56:42;;;;;;;11.50;6.90;;;0.90;99.90;;;;;;5020961;28;20041;-68
2022/12/05 04:59:08;;;;;;;11.40;7.20;;;0.90;99.90;;;;;;5022789;28;20503;-69
2022/12/05 05:01:39;;;;;;;11.52;7.22;;;0.90;99.90;;;;;;5017485;28;20136;-69
2022/12/05 05:04:20;;;;;;;12.50;6.85;;;0.90;99.90;;;;;;5022998;28;20099;-69
2022/12/05 05:06:46;;;;;;;14.25;7.28;;;0.90;99.90;;;;;;5018698;28;20037;-69
2022/12/05 05:09:12;;;;;;;11.73;6.93;;;0.90;99.90;;;;;;5027783;28;20070;-68
2022/12/05 05:11:38;;;;;;;11.80;6.55;;;0.90;99.90;;;;;;5024046;28;20041;-69
2022/12/05 05:14:04;;;;;;;9.57;6.32;;;0.90;99.90;;;;;;5026871;28;20037;-69
2022/12/05 05:16:36;;;;;;;12.38;7.32;;;0.90;99.90;;;;;;5021330;28;20389;-69
2022/12/05 05:19:02;;;;;;;11.25;6.85;;;0.90;99.90;;;;;;5026742;28;20121;-68
2022/12/05 05:21:31;;;;;;;9.57;6.47;;;0.90;99.90;;;;;;5025774;28;20096;-69
2022/12/05 05:23:58;;;;;;;9.00;5.63;;;0.90;99.90;;;;;;5016764;28;20505;-69
2022/12/05 05:26:25;;;;;;;9.43;6.15;;;0.80;99.90;;;;;;5016958;28;20150;-69
2022/12/05 05:28:51;;;;;;;11.02;6.50;;;0.80;99.90;;;;;;5024236;28;20052;-69
2022/12/05 05:31:18;;;;;;;9.75;5.78;;;0.80;99.90;;;;;;5015837;28;20412;-69
2022/12/05 05:33:47;;;;;;;10.77;6.80;;;0.90;99.90;;;;;;5021275;28;20057;-69
2022/12/05 05:36:13;;;;;;;9.25;5.47;;;0.90;99.90;;;;;;5016612;28;20106;-69
2022/12/05 05:38:41;;;;;;;10.90;6.63;;;0.80;99.90;;;;;;5042182;28;20037;-68
2022/12/05 05:41:14;;;;;;;8.75;5.55;;;0.80;99.90;;;;;;5020032;28;20882;-68
2022/12/05 05:43:40;;;;;;;12.05;6.45;;;0.80;99.90;;;;;;5038814;28;20037;-69
2022/12/05 05:46:08;;;;;;;11.27;6.13;;;0.80;99.90;;;;;;5009692;28;20037;-69
2022/12/05 05:48:33;;;;;;;9.60;6.20;;;0.80;99.90;;;;;;5023213;28;20072;-68
2022/12/05 05:51:00;;;;;;;9.73;6.05;;;0.80;99.90;;;;;;5019861;28;21402;-69
2022/12/05 05:53:26;;;;;;;10.25;6.32;;;0.80;99.90;;;;;;5022451;28;20468;-69
2022/12/05 05:55:51;;;;;;;10.98;5.90;;;0.90;99.90;;;;;;5024344;28;20103;-68
2022/12/05 05:58:17;;;;;;;8.68;5.78;;;0.90;99.90;;;;;;5025315;28;20036;-67
2022/12/05 06:00:43;;;;;;;10.27;6.15;;;0.90;99.90;;;;;;5019105;28;20041;-68
2022/12/05 06:03:09;;;;;;;10.25;5.72;;;0.90;99.90;;;;;;5016381;28;20083;-68
2022/12/05 06:05:34;;;;;;;10.05;5.97;;;0.90;99.90;;;;;;5019546;28;20044;-67
2022/12/05 06:08:00;;;;;;;10.73;6.20;;;0.90;99.90;;;;;;5025129;28;20053;-68
2022/12/05 06:10:26;;;;;;;12.52;5.93;;;0.90;99.90;;;;;;5014142;28;20071;-68
2022/12/05 06:12:51;;;;;;;10.90;6.57;;;0.90;99.90;;;;;;5022328;28;20140;-69
2022/12/05 06:15:17;;;;;;;9.65;6.00;;;0.90;99.90;;;;;;5016476;28;20065;-68
2022/12/05 06:17:43;;;;;;;12.38;6.55;;;0.90;99.90;;;;;;5022171;28;20108;-67
2022/12/05 06:20:09;;;;;;;12.55;6.90;;;1.00;99.90;;;;;;5019647;28;20034;-66
2022/12/05 06:22:34;;;;;;;13.80;5.82;;;1.00;99.90;;;;;;5019832;28;20037;-68
2022/12/05 06:25:00;;;;;;;11.48;6.40;;;1.00;99.90;;;;;;5024071;28;20091;-68
2022/12/05 06:27:30;;;;;;;10.88;6.05;;;1.00;99.90;;;;;;5021515;28;20076;-68
2022/12/05 06:29:55;;;;;;;12.68;6.10;;;1.00;99.90;;;;;;5014361;28;20527;-68
2022/12/05 06:32:21;;;;;;;10.48;6.50;;;1.00;99.90;;;;;;5015811;28;20054;-68
2022/12/05 06:34:47;;;;;;;9.27;6.22;;;1.00;99.90;;;;;;5022881;28;20033;-67
2022/12/05 06:37:13;;;;;;;12.27;6.72;;;0.90;99.90;;;;;;5016804;28;20037;-68
2022/12/05 06:39:38;;;;;;;12.63;6.63;;;1.00;99.90;;;;;;5024051;28;20045;-68
2022/12/05 06:42:04;;;;;;;13.23;6.38;;;1.00;99.90;;;;;;5017863;28;20037;-67
2022/12/05 06:44:30;;;;;;;10.68;6.70;;;1.00;99.90;;;;;;5017796;28;20075;-66
2022/12/05 06:46:56;;;;;;;10.02;6.18;;;1.00;99.90;;;;;;5016942;28;20041;-68
2022/12/05 06:49:24;;;;;;;11.23;6.43;;;1.00;99.90;;;;;;5019765;28;20046;-65
2022/12/05 06:51:52;;;;;;;12.10;6.70;;;1.00;99.90;;;;;;5018291;28;20048;-67
2022/12/05 06:54:17;;;;;;;10.77;6.28;;;1.00;99.90;;;;;;5019904;28;20064;-66
2022/12/05 06:56:43;;;;;;;9.40;6.00;;;1.00;99.90;;;;;;5016617;28;20037;-67
2022/12/05 06:59:09;;;;;;;11.50;6.18;;;1.00;99.90;;;;;;5025513;28;20033;-67
2022/12/05 07:01:37;;;;;;;9.55;6.03;;;1.00;99.90;;;;;;5018418;28;20057;-67
2022/12/05 07:04:06;;;;;;;9.15;5.53;;;1.00;99.90;;;;;;5019818;28;20048;-66
2022/12/05 07:06:33;;;;;;;9.35;5.72;;;1.00;99.90;;;;;;5015353;28;20041;-68
2022/12/05 07:08:59;;;;;;;12.20;6.32;;;1.00;99.90;;;;;;5022257;28;20801;-67
2022/12/05 07:11:25;;;;;;;12.45;5.63;;;1.00;99.90;;;;;;5016787;28;20136;-66
2022/12/05 07:13:50;;;;;;;11.18;6.07;;;1.10;99.90;;;;;;5021492;28;20537;-67
2022/12/05 07:16:16;;;;;;;9.23;5.90;;;1.00;99.90;;;;;;5016873;28;20048;-68
2022/12/05 07:18:42;;;;;;;10.38;5.90;;;1.00;99.90;;;;;;5023194;28;20105;-67
2022/12/05 07:21:11;;;;;;;16.42;6.00;;;1.10;99.90;;;;;;5018714;28;20034;-67
2022/12/05 07:23:37;;;;;;;8.70;5.80;;;1.10;99.90;;;;;;5019925;28;20042;-66
2022/12/05 07:26:07;;;;;;;8.93;5.85;;;1.10;99.90;;;;;;5020798;28;20057;-66
2022/12/05 07:28:33;;;;;;;9.90;5.57;;;1.10;99.90;;;;;;5025632;28;20041;-66
2022/12/05 07:31:04;;;;;;;12.40;5.65;;;1.10;99.90;;;;;;5021079;28;20076;-63
2022/12/05 07:33:30;;;;;;;10.52;5.72;;;1.10;99.90;;;;;;5017804;28;20044;-65
2022/12/05 07:36:01;;;;;;;9.25;5.93;;;1.10;99.90;;;;;;5017875;28;20054;-63
2022/12/05 07:38:28;;;;;;;9.35;5.70;;;1.10;99.90;;;;;;5020265;28;20049;-66
2022/12/05 07:40:53;;;;;;;9.48;5.95;;;1.10;99.90;;;;;;5020857;28;20041;-66
2022/12/05 07:43:19;;;;;;;8.90;5.82;;;1.10;99.90;;;;;;5017269;28;20222;-65
2022/12/05 07:45:45;;;;;;;9.30;5.93;;;1.10;99.90;;;;;;5023424;28;20041;-66
2022/12/05 07:48:11;;;;;;;10.52;5.40;;;1.10;99.90;;;;;;5025350;28;20109;-66
2022/12/05 07:50:36;;;;;;;8.63;5.88;;;1.10;99.90;;;;;;5026787;28;20662;-65
2022/12/05 07:53:02;;;;;;;11.07;6.53;;;1.10;99.90;;;;;;5026677;28;20036;-63
2022/12/05 07:55:28;;;;;;;11.40;5.88;;;1.10;99.90;;;;;;5036043;28;20517;-64
2022/12/05 07:57:54;;;;;;;10.45;6.22;;;1.10;99.90;;;;;;5027589;28;20048;-66
2022/12/05 08:00:20;;;;;;;11.88;5.95;;;1.10;99.90;;;;;;5026686;28;20541;-66
2022/12/05 08:02:46;;;;;;;10.75;6.50;;;1.10;99.90;;;;;;5023887;28;20071;-66
2022/12/05 08:05:12;;;;;;;10.65;6.55;;;1.20;99.90;;;;;;5023918;28;20057;-66
2022/12/05 08:07:37;;;;;;;11.02;6.40;;;1.20;99.90;;;;;;5026425;28;20123;-66
2022/12/05 08:10:04;;;;;;;18.27;8.13;;;1.20;99.90;;;;;;5027273;28;20104;-66
2022/12/05 08:12:30;;;;;;;9.73;6.10;;;1.20;99.90;;;;;;5026009;28;20045;-66
2022/12/05 08:14:55;;;;;;;11.65;6.35;;;1.20;99.90;;;;;;5023510;28;20124;-65
2022/12/05 08:17:21;;;;;;;12.85;6.45;;;1.20;99.90;;;;;;5024931;28;20088;-64
2022/12/05 08:19:47;;;;;;;13.43;6.45;;;1.20;99.90;;;;;;5026189;28;20449;-64
2022/12/05 08:22:12;;;;;;;10.20;5.95;;;1.30;99.90;;;;;;5024988;28;20099;-66
2022/12/05 08:24:38;;;;;;;11.65;5.95;;;1.30;99.90;;;;;;5025964;28;20045;-65
2022/12/05 08:27:04;;;;;;;9.82;6.22;;;1.30;99.90;;;;;;5021416;28;20486;-66
2022/12/05 08:29:30;;;;;;;10.75;6.15;;;1.20;99.90;;;;;;5025585;28;20510;-65
2022/12/05 08:31:57;;;;;;;11.35;6.20;;;1.30;99.90;;;;;;5021163;28;20048;-66
2022/12/05 08:34:23;;;;;;;10.52;5.63;;;1.30;99.90;;;;;;5025129;28;20076;-65
2022/12/05 08:36:49;;;;;;;9.93;6.28;;;1.30;99.90;;;;;;5017486;28;20579;-66
2022/12/05 08:39:17;;;;;;;13.27;7.05;;;1.40;99.90;;;;;;5025894;28;20120;-66
2022/12/05 08:41:45;;;;;;;12.23;6.90;;;1.40;99.90;;;;;;5022861;28;20095;-66
2022/12/05 08:44:15;;;;;;;10.27;7.10;;;1.40;99.90;;;;;;5024066;28;20495;-66
2022/12/05 08:46:42;;;;;;;12.18;6.93;;;1.40;99.90;;;;;;5023376;28;20107;-66
2022/12/05 08:49:09;;;;;;;10.23;5.45;;;1.40;99.90;;;;;;5023535;28;20048;-66
2022/12/05 08:51:35;;;;;;;9.57;5.75;;;1.40;99.90;;;;;;5021638;28;20076;-66
2022/12/05 08:54:02;;;;;;;11.48;6.25;;;1.50;99.90;;;;;;5007232;28;20033;-66
2022/12/05 08:56:28;;;;;;;9.90;6.35;;;1.50;99.90;;;;;;5022527;28;20120;-66
2022/12/05 08:58:54;;;;;;;12.27;7.20;;;1.50;99.90;;;;;;5028121;28;20136;-66
2022/12/05 09:01:21;;;;;;;7.80;5.47;;;1.60;99.90;;;;;;5023980;28;20493;-66
2022/12/05 09:03:47;;;;;;;8.90;5.70;;;1.50;99.90;;;;;;5020588;28;20042;-66
2022/12/05 09:06:21;;;;;;;16.77;7.60;;;1.50;99.90;;;;;;5020456;28;20456;-66
2022/12/05 09:08:48;;;;;;;9.60;5.95;;;1.50;99.90;;;;;;5025304;28;20048;-65
2022/12/05 09:11:20;;;;;;;11.82;8.05;;;1.60;99.90;;;;;;5017240;28;20044;-66
2022/12/05 09:13:47;;;;;;;15.13;9.50;;;1.60;99.90;;;;;;5023663;28;20041;-66
2022/12/05 09:16:25;;;;;;;15.13;8.60;;;1.70;99.90;;;;;;5021394;28;20052;-65
2022/12/05 09:18:51;;;;;;;14.27;7.65;;;1.80;99.90;;;;;;5025817;28;20053;-65
2022/12/05 09:21:19;;;;;;;10.50;7.15;;;1.80;99.90;;;;;;5020069;28;20038;-65
2022/12/05 09:23:45;;;;;;;10.57;6.97;;;1.80;99.90;;;;;;5021773;28;20698;-66
2022/12/05 09:26:13;;;;;;;9.75;6.80;;;1.90;99.90;;;;;;5019635;28;20038;-66
2022/12/05 09:28:40;;;;;;;12.70;7.45;;;2.00;99.90;;;;;;5025255;28;20038;-66
2022/12/05 09:31:09;;;;;;;12.02;7.22;;;2.00;99.90;;;;;;5013810;28;20042;-66
2022/12/05 09:33:36;;;;;;;12.55;7.88;;;2.00;99.90;;;;;;5024636;28;20099;-66
2022/12/05 09:36:09;;;;;;;11.13;7.53;;;2.10;99.90;;;;;;5025118;28;20156;-67
2022/12/05 09:38:35;;;;;;;17.15;10.35;;;2.10;99.90;;;;;;5027810;28;20128;-66
2022/12/05 09:41:16;;;;;;;18.35;10.85;;;2.00;99.90;;;;;;5022907;28;20037;-66
2022/12/05 09:43:42;;;;;;;12.68;9.13;;;2.10;99.90;;;;;;5020592;28;20414;-66
2022/12/05 09:46:43;;;;;;;17.90;10.20;;;2.10;99.90;;;;;;5019812;28;20091;-67
2022/12/05 09:49:11;;;;;;;22.83;15.02;;;2.20;99.90;;;;;;5005049;28;20071;-67
2022/12/05 09:51:43;;;;;;;21.45;13.07;;;2.20;99.90;;;;;;5019688;28;20175;-67
2022/12/05 09:54:10;;;;;;;15.45;9.43;;;2.20;99.90;;;;;;5024782;28;20044;-67
2022/12/05 09:56:38;;;;;;;13.23;7.80;;;2.20;99.90;;;;;;5020955;28;20045;-67
2022/12/05 09:59:05;;;;;;;14.90;8.63;;;2.30;99.90;;;;;;5026142;28;20029;-67
2022/12/05 10:01:41;;;;;;;14.43;8.07;;;2.30;99.90;;;;;;5022055;28;20052;-67
2022/12/05 10:04:12;;;;;;;11.75;6.55;;;2.40;99.90;;;;;;5019843;28;20046;-67
2022/12/05 10:06:43;;;;;;;10.35;6.35;;;2.40;99.90;;;;;;5018912;28;20084;-67
2022/12/05 10:09:36;;;;;;;12.50;7.32;;;2.30;99.90;;;;;;5021877;28;20049;-67
2022/12/05 10:12:13;;;;;;;11.20;7.45;;;2.40;99.90;;;;;;5017597;28;20607;-67
2022/12/05 10:14:39;;;;;;;11.65;7.13;;;2.40;99.90;;;;;;5019072;28;20048;-67
2022/12/05 10:17:26;;;;;;;11.88;7.57;;;2.40;99.90;;;;;;5018328;28;20038;-67
2022/12/05 10:19:58;;;;;;;12.82;7.43;;;2.50;99.90;;;;;;5019398;28;20045;-68
2022/12/05 10:22:47;;;;;;;10.85;7.13;;;2.50;99.90;;;;;;5004914;28;20034;-67
2022/12/05 10:25:18;;;;;;;10.77;6.55;;;2.50;99.90;;;;;;5015114;28;20041;-67
2022/12/05 10:28:00;;;;;;;10.60;7.72;;;2.60;99.90;;;;;;5014419;28;20046;-67
2022/12/05 10:30:32;;;;;;;9.73;6.40;;;2.60;99.90;;;;;;5024473;28;20037;-67
2022/12/05 10:33:10;;;;;;;8.27;5.95;;;2.70;99.90;;;;;;5026746;28;20732;-67
2022/12/05 10:35:38;;;;;;;11.63;6.07;;;2.60;99.90;;;;;;5027356;28;20045;-66
2022/12/05 10:38:09;;;;;;;9.82;5.93;;;2.60;99.90;;;;;;5027303;28;20079;-66
2022/12/05 10:40:45;;;;;;;9.35;5.95;;;2.60;99.90;;;;;;5029688;28;20602;-65
2022/12/05 10:43:15;;;;;;;9.70;5.60;;;2.70;99.90;;;;;;5023621;28;20542;-67
2022/12/05 10:45:44;;;;;;;9.98;5.05;;;2.70;99.90;;;;;;5025959;28;20095;-67
2022/12/05 10:48:15;;;;;;;17.90;9.13;;;2.60;99.90;;;;;;5025077;28;20073;-66
2022/12/05 10:50:43;;;;;;;20.40;11.43;;;2.70;99.90;;;;;;5030016;28;20040;-66
2022/12/05 10:53:16;;;;;;;12.45;7.38;;;2.70;99.90;;;;;;5029378;28;20685;-66
2022/12/05 10:55:45;;;;;;;13.10;7.95;;;2.70;99.90;;;;;;5027675;28;20075;-66
2022/12/05 10:58:21;;;;;;;11.18;7.05;;;2.80;99.90;;;;;;5015006;28;20033;-66
2022/12/05 11:00:51;;;;;;;15.65;7.50;;;2.80;99.90;;;;;;5025712;28;20033;-66
2022/12/05 11:03:30;;;;;;;8.63;5.10;;;2.90;99.90;;;;;;5011795;28;20041;-68
2022/12/05 11:06:26;;;;;;;11.13;5.15;;;3.00;99.90;;;;;;5023556;28;20044;-64
2022/12/05 11:08:58;;;;;;;7.72;4.85;;;3.00;99.90;;;;;;5031340;28;20544;-66
2022/12/05 11:11:32;;;;;;;9.98;4.55;;;2.90;99.90;;;;;;5036694;28;20037;-66
2022/12/05 11:14:02;;;;;;;7.43;5.00;;;3.00;99.90;;;;;;5025847;28;20044;-68
2022/12/05 11:16:35;;;;;;;4.53;3.00;;;3.00;99.90;;;;;;5025425;28;20036;-67
2022/12/05 11:19:20;;;;;;;3.85;2.60;;;2.90;99.90;;;;;;5022320;28;20041;-68
2022/12/05 11:21:50;;;;;;;4.53;2.42;;;2.90;99.90;;;;;;5034339;28;20072;-69
2022/12/05 11:24:33;;;;;;;5.72;3.10;;;2.90;99.90;;;;;;5015842;28;20034;-70
2022/12/05 11:27:19;;;;;;;3.92;2.72;;;2.80;99.90;;;;;;5037358;28;20152;-72
2022/12/05 11:29:57;;;;;;;5.33;2.77;;;2.80;99.90;;;;;;5023679;28;20049;-69
2022/12/05 11:32:27;;;;;;;4.47;2.67;;;2.90;99.90;;;;;;5030559;28;20037;-68
2022/12/05 11:35:12;;;;;;;3.88;2.55;;;2.80;99.90;;;;;;5031388;28;20042;-69
2022/12/05 11:37:57;;;;;;;4.30;3.22;;;2.80;99.90;;;;;;5025343;28;20049;-67
2022/12/05 11:40:37;;;;;;;3.55;2.92;;;2.70;99.90;;;;;;5021860;28;20069;-66
2022/12/05 11:43:25;;;;;;;4.32;2.90;;;2.70;99.90;;;;;;5034912;28;20096;-68
2022/12/05 11:46:09;;;;;;;7.72;3.47;;;2.70;99.90;;;;;;5025266;28;20562;-66
2022/12/05 11:48:46;;;;;;;5.05;3.13;;;2.60;99.90;;;;;;5031555;28;20052;-65
2022/12/05 11:51:37;;;;;;;5.32;3.38;;;2.70;99.90;;;;;;5024020;28;20032;-66
2022/12/05 11:54:38;;;;;;;6.25;3.95;;;2.60;99.90;;;;;;5015868;28;20102;-65
2022/12/05 11:57:12;;;;;;;8.00;4.00;;;2.40;99.90;;;;;;5022577;28;20051;-65
2022/12/05 11:59:59;;;;;;;5.20;3.55;;;2.40;99.90;;;;;;5013160;28;20041;-66
2022/12/05 12:02:33;;;;;;;;;;;2.50;99.90;;;;;;5022186;28;20041;-66
2022/12/05 12:05:27;;;;;;;5.45;3.72;;;2.50;99.90;;;;;;5016259;28;19925;-68
2022/12/05 12:08:11;;;;;;;5.95;4.10;;;2.60;99.90;;;;;;5018403;28;20089;-66
2022/12/05 12:10:47;;;;;;;7.63;3.78;;;2.60;99.90;;;;;;5025179;28;20511;-67
2022/12/05 12:13:58;;;;;;;8.88;4.55;;;2.60;99.90;;;;;;5021311;28;20029;-66
2022/12/05 12:16:47;;;;;;;7.63;4.53;;;2.60;99.90;;;;;;5030526;28;20081;-66
2022/12/05 12:19:34;;;;;;;5.57;3.88;;;2.50;99.90;;;;;;5021179;28;20112;-66
2022/12/05 12:22:17;;;;;;;7.03;4.18;;;2.50;99.90;;;;;;5041356;28;20139;-65
2022/12/05 12:24:57;;;;;;;6.43;4.10;;;2.50;99.90;;;;;;5027578;28;20080;-65
2022/12/05 12:27:48;;;;;;;7.25;4.03;;;2.50;99.90;;;;;;5040299;28;20501;-65
2022/12/05 12:30:27;;;;;;;5.22;3.70;;;2.50;99.90;;;;;;5019498;28;20079;-66
2022/12/05 12:32:53;;;;;;;5.50;3.97;;;2.40;99.90;;;;;;5033109;28;20087;-65
2022/12/05 12:35:29;;;;;;;6.45;4.20;;;2.30;99.90;;;;;;5029683;28;20084;-66
2022/12/05 12:38:07;;;;;;;;;;;2.40;99.90;;;;;;5044950;28;20092;-66
2022/12/05 12:40:47;;;;;;;;;;;2.40;99.90;;;;;;5031795;28;19921;-65
2022/12/05 12:43:23;;;;;;;5.18;3.65;;;2.40;99.90;;;;;;5025741;28;19917;-65
2022/12/05 12:46:19;;;;;;;5.38;4.00;;;2.40;99.90;;;;;;5028446;28;20044;-66
2022/12/05 12:48:59;;;;;;;6.03;4.10;;;2.50;99.90;;;;;;5033988;28;20049;-65
2022/12/05 12:51:26;;;;;;;6.40;3.90;;;2.40;99.90;;;;;;5037320;28;20044;-66
2022/12/05 12:54:24;;;;;;;6.65;4.70;;;2.50;99.90;;;;;;5034490;28;20102;-66
2022/12/05 12:57:05;;;;;;;6.28;4.20;;;2.50;99.90;;;;;;5026907;28;20138;-66
2022/12/05 12:59:52;;;;;;;7.28;4.32;;;2.60;99.90;;;;;;5024175;28;20693;-64
2022/12/05 13:02:26;;;;;;;6.78;4.32;;;2.60;99.90;;;;;;5029276;28;20075;-64
2022/12/05 13:05:08;;;;;;;5.93;3.88;;;2.60;99.90;;;;;;5028756;28;20038;-66
2022/12/05 13:07:37;;;;;;;9.68;3.72;;;2.60;99.90;;;;;;5034109;28;20107;-63
2022/12/05 13:10:21;;;;;;;6.28;4.38;;;2.60;99.90;;;;;;5028076;28;20496;-65
2022/12/05 13:12:48;;;;;;;6.28;4.40;;;2.60;99.90;;;;;;5040821;28;20145;-64
2022/12/05 13:15:39;;;;;;;6.70;3.90;;;2.60;99.90;;;;;;5025847;28;20047;-64